Alexanter 5 — SV7230 — position and weather

sailwx.info

Track history (hours):
 
Tides and Currents Weather Stations Pressure Air Temp Water Temp Dewpoint Dewpoint Depression Visibility Wind Speed Wind Dir Waves Ship Positions

Alexanter 5

Last reported at 2018-Jun-22 10:25 UTC. Time now 2018-Jun-22 23:01 UTC.
Position N 37°56' E 023°37'.

Length 38 m; draft 5.5 m.

Type: Tug. MMSI: 239634000.

Date/timePositionNaut miles runAvg speedWind from/ knotsBaromVisibWave heightAir tempDewpointWater temp
2018-Jun-22 10:25N 37°56' E 023°37'0 0.0
2018-Jun-22 10:00N 37°56' E 023°37'0 0.0
2018-Jun-22 09:30N 37°56' E 023°37'0 0.0
2018-Jun-22 09:00N 37°56' E 023°37'0 0.0
2018-Jun-21 03:24N 37°56' E 023°37'0 0.0
2018-Jun-21 03:00N 37°56' E 023°37'0 0.0
2018-Jun-21 02:30N 37°56' E 023°37'0 0.0
2018-Jun-21 02:00N 37°56' E 023°37'0 0.0
2018-Jun-21 01:30N 37°56' E 023°37'0 0.0
2018-Jun-21 01:00N 37°56' E 023°37'0 0.2
2018-Jun-21 00:30N 37°56' E 023°37'2 3.8
2018-Jun-21 00:00N 37°57' E 023°35'1 1.8
2018-Jun-20 23:30N 37°56' E 023°35'1 2.2
2018-Jun-20 23:00N 37°57' E 023°36'0 0.0
2018-Jun-20 22:30N 37°57' E 023°36'0 0.9
2018-Jun-20 22:00N 37°57' E 023°35'1 2.0
2018-Jun-20 21:30N 37°57' E 023°37'0 0.0
2018-Jun-20 21:00N 37°57' E 023°37'0 0.0
2018-Jun-20 20:30N 37°57' E 023°37'0 0.0
2018-Jun-20 20:00N 37°57' E 023°37'1 1.9
2018-Jun-20 19:30N 37°57' E 023°36'1 1.4
2018-Jun-20 19:00N 37°57' E 023°36'1 2.0
2018-Jun-20 18:30N 37°57' E 023°37'0 0.4
2018-Jun-20 18:00N 37°58' E 023°36'1 1.3
2018-Jun-20 17:30N 37°57' E 023°36'1 1.3
2018-Jun-20 17:00N 37°57' E 023°37'0 0.0
2018-Jun-20 16:30N 37°57' E 023°37'0 0.0
2018-Jun-20 16:00N 37°57' E 023°37'0 0.0
2018-Jun-20 15:30N 37°57' E 023°37'1 2.3
2018-Jun-20 15:00N 37°57' E 023°35'0 0.3
2018-Jun-20 14:30N 37°57' E 023°35'3 5.1
2018-Jun-20 14:00N 37°56' E 023°38'0 0.0
2018-Jun-20 13:30N 37°56' E 023°38'1 1.6
2018-Jun-20 13:00N 37°56' E 023°37'0 0.0
2018-Jun-20 12:30N 37°56' E 023°37'1 2.6
2018-Jun-20 12:00N 37°57' E 023°36'1 2.7
2018-Jun-20 11:30N 37°56' E 023°37'0 0.0
2018-Jun-20 11:00N 37°56' E 023°37'0 0.0
2018-Jun-20 10:30N 37°56' E 023°37'0 0.0
2018-Jun-20 04:55N 37°56' E 023°37'0 0.0
2018-Jun-20 04:30N 37°56' E 023°37'0 0.0
2018-Jun-20 04:00N 37°56' E 023°37'0 0.0
2018-Jun-20 03:30N 37°56' E 023°37'0 0.0
2018-Jun-20 03:00N 37°56' E 023°37'0 0.0
2018-Jun-20 02:30N 37°56' E 023°37'1 1.3
2018-Jun-20 01:58N 37°56' E 023°38'1 2.5
2018-Jun-20 01:30N 37°56' E 023°37'1 2.1
2018-Jun-20 01:00N 37°57' E 023°36'0 0.1
2018-Jun-20 00:30N 37°57' E 023°36'0 0.6
2018-Jun-20 00:00N 37°57' E 023°35'1 1.4
2018-Jun-19 23:30N 37°57' E 023°36'0 1.0
2018-Jun-19 23:00N 37°57' E 023°37'0 0.0
2018-Jun-19 22:30N 37°57' E 023°37'0 0.0
2018-Jun-19 22:00N 37°57' E 023°37'0 0.0
2018-Jun-19 21:30N 37°57' E 023°37'0 0.0
2018-Jun-19 21:00N 37°57' E 023°37'0 0.0
2018-Jun-19 20:30N 37°57' E 023°37'0 0.0
2018-Jun-19 20:00N 37°57' E 023°37'0 0.0
2018-Jun-19 19:30N 37°57' E 023°37'0 0.0
2018-Jun-19 19:00N 37°57' E 023°37'0 0.0
2018-Jun-19 18:30N 37°57' E 023°37'0 0.0
2018-Jun-19 18:00N 37°57' E 023°37'0 0.0
2018-Jun-19 17:30N 37°57' E 023°37'0 0.0
2018-Jun-19 17:00N 37°57' E 023°37'0 0.0
2018-Jun-19 16:30N 37°57' E 023°37'0 0.0
2018-Jun-19 16:00N 37°57' E 023°37'0 0.0
2018-Jun-19 15:30N 37°57' E 023°37'1 1.4
2018-Jun-19 15:00N 37°57' E 023°36'0 0.1
2018-Jun-19 14:30N 37°57' E 023°36'0 0.2
2018-Jun-19 14:00N 37°57' E 023°36'1 2.0
2018-Jun-19 13:30N 37°56' E 023°36'1 1.3
2018-Jun-19 13:00N 37°57' E 023°36'0 0.0
2018-Jun-19 12:30N 37°57' E 023°36'0 0.6
2018-Jun-19 12:00N 37°57' E 023°36'0 0.7
2018-Jun-19 11:30N 37°58' E 023°36'2 3.5
2018-Jun-19 11:00N 37°56' E 023°37'0 0.0
2018-Jun-19 03:29N 37°56' E 023°37'0 0.0
2018-Jun-19 03:00N 37°56' E 023°37'0 0.0
2018-Jun-19 02:30N 37°56' E 023°37'2 4.1
2018-Jun-19 02:00N 37°57' E 023°35'0 0.6
2018-Jun-19 01:30N 37°57' E 023°35'0 0.0
2018-Jun-19 01:00N 37°57' E 023°35'0 0.2
2018-Jun-19 00:30N 37°57' E 023°35'1 1.0
2018-Jun-19 00:00N 37°57' E 023°36'0 0.0
2018-Jun-18 23:30N 37°57' E 023°36'0 0.0
2018-Jun-18 23:00N 37°57' E 023°36'0 0.0
2018-Jun-18 22:30N 37°57' E 023°36'1 1.9
2018-Jun-18 22:00N 37°57' E 023°35'2 3.9
2018-Jun-18 21:30N 37°55' E 023°35'2 3.9
2018-Jun-18 21:00N 37°57' E 023°35'1 1.7
2018-Jun-18 20:30N 37°57' E 023°36'1 1.5
2018-Jun-18 20:00N 37°57' E 023°37'0 0.2
2018-Jun-18 19:30N 37°58' E 023°37'0 0.2
2018-Jun-18 19:00N 37°57' E 023°37'0 0.0
2018-Jun-18 18:30N 37°57' E 023°37'0 0.0
2018-Jun-18 18:00N 37°57' E 023°37'1 1.4
2018-Jun-18 17:30N 37°57' E 023°36'1 2.2
2018-Jun-18 17:00N 37°56' E 023°36'1 1.6
2018-Jun-18 16:30N 37°56' E 023°37'0 0.6
2018-Jun-18 16:00N 37°56' E 023°37'0 0.0
2018-Jun-18 15:30N 37°56' E 023°37'0 0.0
2018-Jun-18 15:00N 37°56' E 023°37'0 0.0
2018-Jun-18 14:30N 37°56' E 023°37'0 0.0
2018-Jun-18 14:00N 37°56' E 023°37'0 0.0
2018-Jun-18 13:30N 37°56' E 023°37'0 0.0
2018-Jun-18 13:00N 37°56' E 023°37'0 0.0
2018-Jun-18 12:30N 37°56' E 023°37'0 0.0
2018-Jun-18 12:00N 37°56' E 023°37'0 0.0
2018-Jun-18 11:30N 37°56' E 023°37'0 0.0
2018-Jun-18 11:00N 37°56' E 023°37'0 0.0
2018-Jun-18 04:56N 37°56' E 023°37'1 3.4
2018-Jun-18 04:30N 37°57' E 023°36'0 0.0
2018-Jun-18 04:01N 37°57' E 023°36'0 0.0
2018-Jun-18 03:31N 37°57' E 023°36'0 0.0
2018-Jun-18 03:01N 37°57' E 023°36'0 0.0
2018-Jun-18 02:30N 37°57' E 023°36'0 0.0
2018-Jun-18 02:01N 37°57' E 023°36'0 0.0
2018-Jun-18 01:31N 37°57' E 023°36'0 0.0
2018-Jun-18 01:01N 37°57' E 023°36'0 0.0
2018-Jun-18 00:31N 37°57' E 023°36'0 0.9
2018-Jun-18 00:01N 37°57' E 023°36'1 2.8
2018-Jun-17 23:31N 37°56' E 023°36'1 1.9
2018-Jun-17 23:01N 37°57' E 023°36'0 0.0
2018-Jun-17 22:31N 37°57' E 023°36'0 0.3
2018-Jun-17 22:01N 37°57' E 023°36'0 0.6
2018-Jun-17 21:31N 37°57' E 023°36'1 1.0
2018-Jun-17 21:01N 37°57' E 023°35'1 2.8
2018-Jun-17 20:31N 37°56' E 023°35'2 3.7
2018-Jun-17 20:01N 37°56' E 023°37'0 0.2
2018-Jun-17 19:31N 37°56' E 023°37'0 0.0
2018-Jun-17 19:01N 37°56' E 023°37'0 0.0
2018-Jun-17 18:31N 37°56' E 023°37'0 0.0
2018-Jun-17 18:01N 37°56' E 023°37'2 3.3
2018-Jun-17 17:31N 37°57' E 023°36'0 0.8
2018-Jun-17 17:00N 37°57' E 023°37'0 0.0
2018-Jun-17 16:30N 37°57' E 023°37'0 0.0
2018-Jun-17 16:00N 37°57' E 023°37'0 0.0
2018-Jun-17 15:30N 37°57' E 023°37'0 0.0
2018-Jun-17 15:01N 37°57' E 023°37'0 0.0
2018-Jun-17 14:30N 37°57' E 023°37'0 0.0
2018-Jun-17 14:01N 37°57' E 023°37'0 0.0
2018-Jun-17 13:30N 37°57' E 023°37'0 0.0
2018-Jun-17 13:01N 37°57' E 023°37'0 0.0
2018-Jun-17 12:31N 37°57' E 023°37'0 0.0
2018-Jun-17 12:01N 37°57' E 023°37'0 0.0
2018-Jun-17 11:30N 37°57' E 023°37'0 0.0
2018-Jun-17 11:01N 37°57' E 023°37'0 0.0
2018-Jun-17 10:31N 37°57' E 023°37'0 0.0
2018-Jun-17 10:01N 37°57' E 023°37'0 0.0
2018-Jun-17 09:30N 37°57' E 023°37'0 0.0
2018-Jun-17 09:00N 37°57' E 023°37'0 0.0
2018-Jun-17 08:31N 37°57' E 023°37'0 0.0
2018-Jun-17 08:01N 37°57' E 023°37'0 0.0
2018-Jun-17 07:31N 37°57' E 023°37'0 0.0
2018-Jun-17 07:00N 37°57' E 023°37'0 0.0
2018-Jun-17 06:30N 37°57' E 023°37'0 0.0
2018-Jun-17 06:01N 37°57' E 023°37'0 0.0
2018-Jun-17 05:31N 37°57' E 023°37'0 0.0
2018-Jun-17 05:01N 37°57' E 023°37'0 0.0
2018-Jun-17 04:31N 37°57' E 023°37'1 2.5
2018-Jun-17 04:00N 37°57' E 023°35'1 2.1
2018-Jun-17 03:30N 37°57' E 023°36'0 0.5
2018-Jun-17 03:00N 37°57' E 023°37'0 0.0
2018-Jun-17 02:30N 37°57' E 023°37'0 0.0
2018-Jun-17 02:00N 37°57' E 023°37'0 0.0
2018-Jun-17 01:30N 37°57' E 023°37'0 0.0
2018-Jun-17 01:00N 37°57' E 023°37'0 0.0
2018-Jun-17 00:30N 37°57' E 023°37'0 0.0
2018-Jun-17 00:00N 37°57' E 023°37'0 0.0
2018-Jun-16 23:30N 37°57' E 023°37'0 0.0
2018-Jun-16 23:00N 37°57' E 023°37'0 0.0
2018-Jun-16 22:30N 37°57' E 023°37'0 0.0
2018-Jun-16 22:00N 37°57' E 023°37'0 0.0
2018-Jun-16 21:30N 37°57' E 023°37'0 0.0
2018-Jun-16 21:00N 37°57' E 023°37'1 2.1
2018-Jun-16 20:30N 37°57' E 023°35'0 0.9
2018-Jun-16 20:00N 37°57' E 023°35'0 0.5
2018-Jun-16 19:30N 37°57' E 023°35'1 2.9
2018-Jun-16 19:00N 37°57' E 023°37'0 0.0
2018-Jun-16 18:30N 37°57' E 023°37'0 0.0
2018-Jun-16 18:00N 37°57' E 023°37'0 0.0
2018-Jun-16 17:31N 37°57' E 023°37'0 0.0
2018-Jun-16 17:00N 37°57' E 023°37'0 0.0
2018-Jun-16 16:31N 37°57' E 023°37'2 4.3
2018-Jun-16 16:00N 37°57' E 023°34'1 2.0
2018-Jun-16 15:30N 37°57' E 023°35'1 2.6
2018-Jun-16 15:00N 37°57' E 023°37'0 0.0
2018-Jun-16 14:30N 37°57' E 023°37'0 0.0
2018-Jun-16 14:01N 37°57' E 023°37'0 0.0
2018-Jun-16 13:30N 37°57' E 023°37'1 1.3
2018-Jun-16 13:00N 37°57' E 023°36'0 0.6
2018-Jun-16 12:30N 37°57' E 023°36'0 0.3
2018-Jun-16 12:00N 37°57' E 023°36'1 1.0
2018-Jun-16 11:30N 37°57' E 023°37'0 0.0
2018-Jun-16 11:00N 37°57' E 023°37'0 0.0
2018-Jun-16 10:30N 37°57' E 023°37'0 0.0
2018-Jun-16 10:00N 37°57' E 023°37'0 0.0
2018-Jun-16 09:30N 37°57' E 023°37'0 0.0
2018-Jun-16 09:00N 37°57' E 023°37'0 0.0
2018-Jun-16 08:30N 37°57' E 023°37'0 0.0
2018-Jun-16 08:00N 37°57' E 023°37'0 0.0
2018-Jun-16 07:30N 37°57' E 023°37'0 0.0
2018-Jun-16 07:00N 37°57' E 023°37'0 0.0
2018-Jun-16 06:30N 37°57' E 023°37'0 0.0
2018-Jun-16 06:00N 37°57' E 023°37'0 0.0
2018-Jun-16 05:30N 37°57' E 023°37'1 2.2
2018-Jun-16 05:00N 37°57' E 023°35'2 3.1
2018-Jun-16 04:31N 37°56' E 023°35'1 3.0
2018-Jun-16 04:00N 37°57' E 023°35'2 4.0
2018-Jun-16 03:30N 37°56' E 023°37'0 0.2
2018-Jun-16 02:59N 37°56' E 023°37'0 0.0
2018-Jun-16 02:30N 37°56' E 023°37'0 0.0
2018-Jun-16 02:00N 37°56' E 023°37'0 0.4
2018-Jun-16 01:30N 37°56' E 023°37'0 0.4
2018-Jun-16 01:00N 37°56' E 023°37'0 0.0
2018-Jun-16 00:30N 37°56' E 023°37'0 0.0
2018-Jun-16 00:00N 37°56' E 023°37'0 0.0
2018-Jun-15 23:30N 37°56' E 023°37'0 0.0
2018-Jun-15 23:00N 37°56' E 023°37'0 0.0
2018-Jun-15 22:30N 37°56' E 023°37'0 0.0
2018-Jun-15 22:00N 37°56' E 023°37'2 3.6
2018-Jun-15 21:30N 37°57' E 023°36'1 1.9
2018-Jun-15 21:00N 37°56' E 023°36'1 1.7
2018-Jun-15 20:30N 37°57' E 023°36'0 0.1
2018-Jun-15 20:00N 37°57' E 023°36'2 3.6
2018-Jun-15 19:30N 37°56' E 023°35'2 4.4
2018-Jun-15 19:00N 37°57' E 023°37'0 0.0
2018-Jun-15 18:30N 37°57' E 023°37'0 0.4
2018-Jun-15 18:00N 37°58' E 023°36'0 0.4
2018-Jun-15 17:30N 37°57' E 023°37'0 0.0
2018-Jun-15 17:00N 37°57' E 023°37'0 0.0
2018-Jun-15 16:31N 37°57' E 023°37'0 0.0
2018-Jun-15 16:01N 37°57' E 023°37'0 0.0
2018-Jun-15 15:30N 37°57' E 023°37'0 0.0
2018-Jun-15 14:59N 37°57' E 023°37'1 2.3
2018-Jun-15 14:31N 37°57' E 023°35'0 0.8
2018-Jun-15 14:01N 37°57' E 023°36'1 1.3
2018-Jun-15 13:31N 37°57' E 023°35'0 0.0
2018-Jun-15 13:00N 37°57' E 023°35'0 0.6
2018-Jun-15 12:30N 37°57' E 023°35'0 0.1
2018-Jun-15 11:46N 37°57' E 023°35'0 1.4
2018-Jun-15 11:30N 37°57' E 023°35'2 3.9
2018-Jun-15 11:00N 37°56' E 023°37'0 0.0
2018-Jun-15 06:00N 37°56' E 023°37'2 4.1
2018-Jun-15 05:30N 37°57' E 023°35'0 0.7
2018-Jun-15 05:00N 37°57' E 023°35'2 3.8
2018-Jun-15 04:30N 37°56' E 023°37'0 0.0
2018-Jun-15 04:00N 37°56' E 023°37'0 0.0
2018-Jun-15 03:30N 37°56' E 023°37'0 0.0
2018-Jun-15 03:00N 37°56' E 023°37'0 0.0
2018-Jun-15 02:30N 37°56' E 023°37'0 0.0
2018-Jun-15 02:00N 37°56' E 023°37'0 0.0
2018-Jun-15 01:30N 37°56' E 023°37'0 0.1
2018-Jun-15 01:00N 37°56' E 023°37'0 0.5
2018-Jun-15 00:30N 37°56' E 023°37'1 2.7
2018-Jun-15 00:01N 37°57' E 023°36'1 1.9
2018-Jun-14 23:30N 37°56' E 023°36'1 2.5
2018-Jun-14 23:00N 37°57' E 023°36'0 0.2
2018-Jun-14 22:31N 37°57' E 023°36'0 0.0
2018-Jun-14 22:01N 37°57' E 023°36'0 0.2
2018-Jun-14 21:30N 37°57' E 023°36'0 0.8
2018-Jun-14 21:00N 37°57' E 023°36'0 0.9
2018-Jun-14 20:30N 37°57' E 023°36'1 1.1
2018-Jun-14 20:00N 37°57' E 023°37'0 0.0
2018-Jun-14 19:30N 37°57' E 023°37'0 0.0
2018-Jun-14 19:01N 37°57' E 023°37'0 0.0
2018-Jun-14 18:30N 37°57' E 023°37'0 0.0
2018-Jun-14 18:00N 37°57' E 023°37'0 0.0
2018-Jun-14 17:31N 37°57' E 023°37'0 0.0
2018-Jun-14 17:00N 37°57' E 023°37'0 0.0
2018-Jun-14 16:31N 37°57' E 023°37'0 0.0
2018-Jun-14 16:00N 37°57' E 023°37'0 0.0
2018-Jun-14 15:31N 37°57' E 023°37'2 3.4
2018-Jun-14 15:00N 37°56' E 023°38'0 0.0
2018-Jun-14 14:30N 37°56' E 023°38'1 1.6
2018-Jun-14 14:00N 37°56' E 023°37'0 0.0
2018-Jun-14 13:30N 37°56' E 023°37'0 0.0
2018-Jun-14 13:00N 37°56' E 023°37'0 0.0
2018-Jun-14 12:31N 37°56' E 023°37'0 0.0
2018-Jun-14 12:00N 37°56' E 023°37'0 0.0
2018-Jun-14 11:30N 37°56' E 023°37'0 0.0
2018-Jun-14 11:00N 37°56' E 023°37'0 0.0
2018-Jun-14 10:30N 37°56' E 023°37'0 0.0
2018-Jun-14 04:55N 37°56' E 023°37'2 3.9
2018-Jun-14 04:30N 37°57' E 023°36'2 2.8
2018-Jun-14 03:54N 37°56' E 023°37'0 0.9
2018-Jun-14 03:30N 37°56' E 023°37'0 0.9
2018-Jun-14 02:59N 37°56' E 023°36'1 0.6
2018-Jun-14 02:04N 37°57' E 023°36'0 0.5
2018-Jun-14 01:56N 37°57' E 023°36'1 1.9
2018-Jun-14 01:30N 37°57' E 023°35'0 0.4
2018-Jun-14 01:00N 37°57' E 023°35'1 0.2
2018-Jun-13 21:10N 37°57' E 023°36'0 1.5
2018-Jun-13 20:55N 37°57' E 023°35'2 4.1
2018-Jun-13 20:30N 37°56' E 023°35'2 3.5
2018-Jun-13 19:59N 37°57' E 023°35'1 0.2
2018-Jun-13 16:33N 37°57' E 023°36'1 4.5
2018-Jun-13 16:27N 37°57' E 023°36'0 0.5
2018-Jun-13 15:30N 37°57' E 023°36'1 1.8
2018-Jun-13 15:00N 37°57' E 023°35'1 2.8
2018-Jun-13 14:30N 37°57' E 023°37'0 0.8
2018-Jun-13 14:00N 37°57' E 023°36'1 2.2
2018-Jun-13 13:30N 37°57' E 023°35'2 5.0
2018-Jun-13 13:00N 37°56' E 023°38'2 4.1
2018-Jun-13 12:30N 37°57' E 023°36'1 2.8
2018-Jun-13 12:00N 37°56' E 023°37'0 0.5
2018-Jun-13 11:31N 37°56' E 023°37'0 0.0
2018-Jun-13 11:00N 37°56' E 023°37'0 0.0
2018-Jun-13 05:15N 37°56' E 023°37'0 0.0
2018-Jun-13 05:01N 37°56' E 023°37'0 0.0
2018-Jun-13 04:30N 37°56' E 023°37'1 1.4
2018-Jun-13 04:01N 37°56' E 023°38'0 0.2
2018-Jun-13 03:30N 37°56' E 023°38'1 1.5
2018-Jun-13 03:00N 37°56' E 023°37'0 0.0
2018-Jun-13 02:31N 37°56' E 023°37'0 0.0
2018-Jun-13 02:01N 37°56' E 023°37'0 0.0
2018-Jun-13 01:30N 37°56' E 023°37'0 0.0
2018-Jun-13 01:01N 37°56' E 023°37'0 0.0
2018-Jun-13 00:31N 37°56' E 023°37'0 0.0
2018-Jun-13 00:00N 37°56' E 023°37'0 0.0
2018-Jun-12 23:30N 37°56' E 023°37'0 0.0
2018-Jun-12 23:00N 37°56' E 023°37'0 0.0
2018-Jun-12 22:31N 37°56' E 023°37'0 0.0
2018-Jun-12 22:01N 37°56' E 023°37'2 4.0
2018-Jun-12 21:30N 37°57' E 023°35'2 4.1
2018-Jun-12 21:01N 37°55' E 023°35'0 0.3
2018-Jun-12 20:30N 37°55' E 023°35'2 4.7
2018-Jun-12 20:01N 37°57' E 023°36'1 2.6
2018-Jun-12 19:31N 37°57' E 023°35'1 2.2
2018-Jun-12 19:01N 37°57' E 023°36'0 0.7
2018-Jun-12 18:31N 37°57' E 023°36'0 0.4
2018-Jun-12 18:00N 37°57' E 023°37'0 0.6
2018-Jun-12 17:30N 37°57' E 023°36'1 2.7
2018-Jun-12 17:01N 37°56' E 023°37'0 0.0
2018-Jun-12 16:31N 37°56' E 023°37'0 0.0
2018-Jun-12 16:01N 37°56' E 023°37'0 0.0
2018-Jun-12 15:31N 37°56' E 023°37'0 0.9
2018-Jun-12 15:00N 37°56' E 023°38'0 0.9
2018-Jun-12 14:31N 37°56' E 023°37'0 0.0
2018-Jun-12 14:00N 37°56' E 023°37'0 0.0
2018-Jun-12 13:30N 37°56' E 023°37'0 0.0
2018-Jun-12 13:01N 37°56' E 023°37'0 0.0
2018-Jun-12 12:30N 37°56' E 023°37'0 0.0
2018-Jun-12 12:01N 37°56' E 023°37'2 3.5
2018-Jun-12 11:30N 37°57' E 023°36'2 3.2
2018-Jun-12 11:01N 37°56' E 023°37'0 0.4
2018-Jun-12 10:31N 37°56' E 023°37'  
Track history (hours):
 
Tides and Currents Weather Stations Pressure Air Temp Water Temp Dewpoint Dewpoint Depression Visibility Wind Speed Wind Dir Waves Ship Positions

Alexanter 5

Last reported at 2018-Jun-22 10:25 UTC. Time now 2018-Jun-22 23:01 UTC.
Position N 37°56' E 023°37'.

Length 38 m; draft 5.5 m.

Type: Tug. MMSI: 239634000.

Date/timePositionNaut miles runAvg speedWind from/ knotsBaromVisibWave heightAir tempDewpointWater temp
2018-Jun-22 10:25N 37°56' E 023°37'0 0.0
2018-Jun-22 10:00N 37°56' E 023°37'0 0.0
2018-Jun-22 09:30N 37°56' E 023°37'0 0.0
2018-Jun-22 09:00N 37°56' E 023°37'0 0.0
2018-Jun-21 03:24N 37°56' E 023°37'0 0.0
2018-Jun-21 03:00N 37°56' E 023°37'0 0.0
2018-Jun-21 02:30N 37°56' E 023°37'0 0.0
2018-Jun-21 02:00N 37°56' E 023°37'0 0.0
2018-Jun-21 01:30N 37°56' E 023°37'0 0.0
2018-Jun-21 01:00N 37°56' E 023°37'0 0.2
2018-Jun-21 00:30N 37°56' E 023°37'2 3.8
2018-Jun-21 00:00N 37°57' E 023°35'1 1.8
2018-Jun-20 23:30N 37°56' E 023°35'1 2.2
2018-Jun-20 23:00N 37°57' E 023°36'0 0.0
2018-Jun-20 22:30N 37°57' E 023°36'0 0.9
2018-Jun-20 22:00N 37°57' E 023°35'1 2.0
2018-Jun-20 21:30N 37°57' E 023°37'0 0.0
2018-Jun-20 21:00N 37°57' E 023°37'0 0.0
2018-Jun-20 20:30N 37°57' E 023°37'0 0.0
2018-Jun-20 20:00N 37°57' E 023°37'1 1.9
2018-Jun-20 19:30N 37°57' E 023°36'1 1.4
2018-Jun-20 19:00N 37°57' E 023°36'1 2.0
2018-Jun-20 18:30N 37°57' E 023°37'0 0.4
2018-Jun-20 18:00N 37°58' E 023°36'1 1.3
2018-Jun-20 17:30N 37°57' E 023°36'1 1.3
2018-Jun-20 17:00N 37°57' E 023°37'0 0.0
2018-Jun-20 16:30N 37°57' E 023°37'0 0.0
2018-Jun-20 16:00N 37°57' E 023°37'0 0.0
2018-Jun-20 15:30N 37°57' E 023°37'1 2.3
2018-Jun-20 15:00N 37°57' E 023°35'0 0.3
2018-Jun-20 14:30N 37°57' E 023°35'3 5.1
2018-Jun-20 14:00N 37°56' E 023°38'0 0.0
2018-Jun-20 13:30N 37°56' E 023°38'1 1.6
2018-Jun-20 13:00N 37°56' E 023°37'0 0.0
2018-Jun-20 12:30N 37°56' E 023°37'1 2.6
2018-Jun-20 12:00N 37°57' E 023°36'1 2.7
2018-Jun-20 11:30N 37°56' E 023°37'0 0.0
2018-Jun-20 11:00N 37°56' E 023°37'0 0.0
2018-Jun-20 10:30N 37°56' E 023°37'0 0.0
2018-Jun-20 04:55N 37°56' E 023°37'0 0.0
2018-Jun-20 04:30N 37°56' E 023°37'0 0.0
2018-Jun-20 04:00N 37°56' E 023°37'0 0.0
2018-Jun-20 03:30N 37°56' E 023°37'0 0.0
2018-Jun-20 03:00N 37°56' E 023°37'0 0.0
2018-Jun-20 02:30N 37°56' E 023°37'1 1.3
2018-Jun-20 01:58N 37°56' E 023°38'1 2.5
2018-Jun-20 01:30N 37°56' E 023°37'1 2.1
2018-Jun-20 01:00N 37°57' E 023°36'0 0.1
2018-Jun-20 00:30N 37°57' E 023°36'0 0.6
2018-Jun-20 00:00N 37°57' E 023°35'1 1.4
2018-Jun-19 23:30N 37°57' E 023°36'0 1.0
2018-Jun-19 23:00N 37°57' E 023°37'0 0.0
2018-Jun-19 22:30N 37°57' E 023°37'0 0.0
2018-Jun-19 22:00N 37°57' E 023°37'0 0.0
2018-Jun-19 21:30N 37°57' E 023°37'0 0.0
2018-Jun-19 21:00N 37°57' E 023°37'0 0.0
2018-Jun-19 20:30N 37°57' E 023°37'0 0.0
2018-Jun-19 20:00N 37°57' E 023°37'0 0.0
2018-Jun-19 19:30N 37°57' E 023°37'0 0.0
2018-Jun-19 19:00N 37°57' E 023°37'0 0.0
2018-Jun-19 18:30N 37°57' E 023°37'0 0.0
2018-Jun-19 18:00N 37°57' E 023°37'0 0.0
2018-Jun-19 17:30N 37°57' E 023°37'0 0.0
2018-Jun-19 17:00N 37°57' E 023°37'0 0.0
2018-Jun-19 16:30N 37°57' E 023°37'0 0.0
2018-Jun-19 16:00N 37°57' E 023°37'0 0.0
2018-Jun-19 15:30N 37°57' E 023°37'1 1.4
2018-Jun-19 15:00N 37°57' E 023°36'0 0.1
2018-Jun-19 14:30N 37°57' E 023°36'0 0.2
2018-Jun-19 14:00N 37°57' E 023°36'1 2.0
2018-Jun-19 13:30N 37°56' E 023°36'1 1.3
2018-Jun-19 13:00N 37°57' E 023°36'0 0.0
2018-Jun-19 12:30N 37°57' E 023°36'0 0.6
2018-Jun-19 12:00N 37°57' E 023°36'0 0.7
2018-Jun-19 11:30N 37°58' E 023°36'2 3.5
2018-Jun-19 11:00N 37°56' E 023°37'0 0.0
2018-Jun-19 03:29N 37°56' E 023°37'0 0.0
2018-Jun-19 03:00N 37°56' E 023°37'0 0.0
2018-Jun-19 02:30N 37°56' E 023°37'2 4.1
2018-Jun-19 02:00N 37°57' E 023°35'0 0.6
2018-Jun-19 01:30N 37°57' E 023°35'0 0.0
2018-Jun-19 01:00N 37°57' E 023°35'0 0.2
2018-Jun-19 00:30N 37°57' E 023°35'1 1.0
2018-Jun-19 00:00N 37°57' E 023°36'0 0.0
2018-Jun-18 23:30N 37°57' E 023°36'0 0.0
2018-Jun-18 23:00N 37°57' E 023°36'0 0.0
2018-Jun-18 22:30N 37°57' E 023°36'1 1.9
2018-Jun-18 22:00N 37°57' E 023°35'2 3.9
2018-Jun-18 21:30N 37°55' E 023°35'2 3.9
2018-Jun-18 21:00N 37°57' E 023°35'1 1.7
2018-Jun-18 20:30N 37°57' E 023°36'1 1.5
2018-Jun-18 20:00N 37°57' E 023°37'0 0.2
2018-Jun-18 19:30N 37°58' E 023°37'0 0.2
2018-Jun-18 19:00N 37°57' E 023°37'0 0.0
2018-Jun-18 18:30N 37°57' E 023°37'0 0.0
2018-Jun-18 18:00N 37°57' E 023°37'1 1.4
2018-Jun-18 17:30N 37°57' E 023°36'1 2.2
2018-Jun-18 17:00N 37°56' E 023°36'1 1.6
2018-Jun-18 16:30N 37°56' E 023°37'0 0.6
2018-Jun-18 16:00N 37°56' E 023°37'0 0.0
2018-Jun-18 15:30N 37°56' E 023°37'0 0.0
2018-Jun-18 15:00N 37°56' E 023°37'0 0.0
2018-Jun-18 14:30N 37°56' E 023°37'0 0.0
2018-Jun-18 14:00N 37°56' E 023°37'0 0.0
2018-Jun-18 13:30N 37°56' E 023°37'0 0.0
2018-Jun-18 13:00N 37°56' E 023°37'0 0.0
2018-Jun-18 12:30N 37°56' E 023°37'0 0.0
2018-Jun-18 12:00N 37°56' E 023°37'0 0.0
2018-Jun-18 11:30N 37°56' E 023°37'0 0.0
2018-Jun-18 11:00N 37°56' E 023°37'0 0.0
2018-Jun-18 04:56N 37°56' E 023°37'1 3.4
2018-Jun-18 04:30N 37°57' E 023°36'0 0.0
2018-Jun-18 04:01N 37°57' E 023°36'0 0.0
2018-Jun-18 03:31N 37°57' E 023°36'0 0.0
2018-Jun-18 03:01N 37°57' E 023°36'0 0.0
2018-Jun-18 02:30N 37°57' E 023°36'0 0.0
2018-Jun-18 02:01N 37°57' E 023°36'0 0.0
2018-Jun-18 01:31N 37°57' E 023°36'0 0.0
2018-Jun-18 01:01N 37°57' E 023°36'0 0.0
2018-Jun-18 00:31N 37°57' E 023°36'0 0.9
2018-Jun-18 00:01N 37°57' E 023°36'1 2.8
2018-Jun-17 23:31N 37°56' E 023°36'1 1.9
2018-Jun-17 23:01N 37°57' E 023°36'0 0.0
2018-Jun-17 22:31N 37°57' E 023°36'0 0.3
2018-Jun-17 22:01N 37°57' E 023°36'0 0.6
2018-Jun-17 21:31N 37°57' E 023°36'1 1.0
2018-Jun-17 21:01N 37°57' E 023°35'1 2.8
2018-Jun-17 20:31N 37°56' E 023°35'2 3.7
2018-Jun-17 20:01N 37°56' E 023°37'0 0.2
2018-Jun-17 19:31N 37°56' E 023°37'0 0.0
2018-Jun-17 19:01N 37°56' E 023°37'0 0.0
2018-Jun-17 18:31N 37°56' E 023°37'0 0.0
2018-Jun-17 18:01N 37°56' E 023°37'2 3.3
2018-Jun-17 17:31N 37°57' E 023°36'0 0.8
2018-Jun-17 17:00N 37°57' E 023°37'0 0.0
2018-Jun-17 16:30N 37°57' E 023°37'0 0.0
2018-Jun-17 16:00N 37°57' E 023°37'0 0.0
2018-Jun-17 15:30N 37°57' E 023°37'0 0.0
2018-Jun-17 15:01N 37°57' E 023°37'0 0.0
2018-Jun-17 14:30N 37°57' E 023°37'0 0.0
2018-Jun-17 14:01N 37°57' E 023°37'0 0.0
2018-Jun-17 13:30N 37°57' E 023°37'0 0.0
2018-Jun-17 13:01N 37°57' E 023°37'0 0.0
2018-Jun-17 12:31N 37°57' E 023°37'0 0.0
2018-Jun-17 12:01N 37°57' E 023°37'0 0.0
2018-Jun-17 11:30N 37°57' E 023°37'0 0.0
2018-Jun-17 11:01N 37°57' E 023°37'0 0.0
2018-Jun-17 10:31N 37°57' E 023°37'0 0.0
2018-Jun-17 10:01N 37°57' E 023°37'0 0.0
2018-Jun-17 09:30N 37°57' E 023°37'0 0.0
2018-Jun-17 09:00N 37°57' E 023°37'0 0.0
2018-Jun-17 08:31N 37°57' E 023°37'0 0.0
2018-Jun-17 08:01N 37°57' E 023°37'0 0.0
2018-Jun-17 07:31N 37°57' E 023°37'0 0.0
2018-Jun-17 07:00N 37°57' E 023°37'0 0.0
2018-Jun-17 06:30N 37°57' E 023°37'0 0.0
2018-Jun-17 06:01N 37°57' E 023°37'0 0.0
2018-Jun-17 05:31N 37°57' E 023°37'0 0.0
2018-Jun-17 05:01N 37°57' E 023°37'0 0.0
2018-Jun-17 04:31N 37°57' E 023°37'1 2.5
2018-Jun-17 04:00N 37°57' E 023°35'1 2.1
2018-Jun-17 03:30N 37°57' E 023°36'0 0.5
2018-Jun-17 03:00N 37°57' E 023°37'0 0.0
2018-Jun-17 02:30N 37°57' E 023°37'0 0.0
2018-Jun-17 02:00N 37°57' E 023°37'0 0.0
2018-Jun-17 01:30N 37°57' E 023°37'0 0.0
2018-Jun-17 01:00N 37°57' E 023°37'0 0.0
2018-Jun-17 00:30N 37°57' E 023°37'0 0.0
2018-Jun-17 00:00N 37°57' E 023°37'0 0.0
2018-Jun-16 23:30N 37°57' E 023°37'0 0.0
2018-Jun-16 23:00N 37°57' E 023°37'0 0.0
2018-Jun-16 22:30N 37°57' E 023°37'0 0.0
2018-Jun-16 22:00N 37°57' E 023°37'0 0.0
2018-Jun-16 21:30N 37°57' E 023°37'0 0.0
2018-Jun-16 21:00N 37°57' E 023°37'1 2.1
2018-Jun-16 20:30N 37°57' E 023°35'0 0.9
2018-Jun-16 20:00N 37°57' E 023°35'0 0.5
2018-Jun-16 19:30N 37°57' E 023°35'1 2.9
2018-Jun-16 19:00N 37°57' E 023°37'0 0.0
2018-Jun-16 18:30N 37°57' E 023°37'0 0.0
2018-Jun-16 18:00N 37°57' E 023°37'0 0.0
2018-Jun-16 17:31N 37°57' E 023°37'0 0.0
2018-Jun-16 17:00N 37°57' E 023°37'0 0.0
2018-Jun-16 16:31N 37°57' E 023°37'2 4.3
2018-Jun-16 16:00N 37°57' E 023°34'1 2.0
2018-Jun-16 15:30N 37°57' E 023°35'1 2.6
2018-Jun-16 15:00N 37°57' E 023°37'0 0.0
2018-Jun-16 14:30N 37°57' E 023°37'0 0.0
2018-Jun-16 14:01N 37°57' E 023°37'0 0.0
2018-Jun-16 13:30N 37°57' E 023°37'1 1.3
2018-Jun-16 13:00N 37°57' E 023°36'0 0.6
2018-Jun-16 12:30N 37°57' E 023°36'0 0.3
2018-Jun-16 12:00N 37°57' E 023°36'1 1.0
2018-Jun-16 11:30N 37°57' E 023°37'0 0.0
2018-Jun-16 11:00N 37°57' E 023°37'0 0.0
2018-Jun-16 10:30N 37°57' E 023°37'0 0.0
2018-Jun-16 10:00N 37°57' E 023°37'0 0.0
2018-Jun-16 09:30N 37°57' E 023°37'0 0.0
2018-Jun-16 09:00N 37°57' E 023°37'0 0.0
2018-Jun-16 08:30N 37°57' E 023°37'0 0.0
2018-Jun-16 08:00N 37°57' E 023°37'0 0.0
2018-Jun-16 07:30N 37°57' E 023°37'0 0.0
2018-Jun-16 07:00N 37°57' E 023°37'0 0.0
2018-Jun-16 06:30N 37°57' E 023°37'0 0.0
2018-Jun-16 06:00N 37°57' E 023°37'0 0.0
2018-Jun-16 05:30N 37°57' E 023°37'1 2.2
2018-Jun-16 05:00N 37°57' E 023°35'2 3.1
2018-Jun-16 04:31N 37°56' E 023°35'1 3.0
2018-Jun-16 04:00N 37°57' E 023°35'2 4.0
2018-Jun-16 03:30N 37°56' E 023°37'0 0.2
2018-Jun-16 02:59N 37°56' E 023°37'0 0.0
2018-Jun-16 02:30N 37°56' E 023°37'0 0.0
2018-Jun-16 02:00N 37°56' E 023°37'0 0.4
2018-Jun-16 01:30N 37°56' E 023°37'0 0.4
2018-Jun-16 01:00N 37°56' E 023°37'0 0.0
2018-Jun-16 00:30N 37°56' E 023°37'0 0.0
2018-Jun-16 00:00N 37°56' E 023°37'0 0.0
2018-Jun-15 23:30N 37°56' E 023°37'0 0.0
2018-Jun-15 23:00N 37°56' E 023°37'0 0.0
2018-Jun-15 22:30N 37°56' E 023°37'0 0.0
2018-Jun-15 22:00N 37°56' E 023°37'2 3.6
2018-Jun-15 21:30N 37°57' E 023°36'1 1.9
2018-Jun-15 21:00N 37°56' E 023°36'1 1.7
2018-Jun-15 20:30N 37°57' E 023°36'0 0.1
2018-Jun-15 20:00N 37°57' E 023°36'2 3.6
2018-Jun-15 19:30N 37°56' E 023°35'2 4.4
2018-Jun-15 19:00N 37°57' E 023°37'0 0.0
2018-Jun-15 18:30N 37°57' E 023°37'0 0.4
2018-Jun-15 18:00N 37°58' E 023°36'0 0.4
2018-Jun-15 17:30N 37°57' E 023°37'0 0.0
2018-Jun-15 17:00N 37°57' E 023°37'0 0.0
2018-Jun-15 16:31N 37°57' E 023°37'0 0.0
2018-Jun-15 16:01N 37°57' E 023°37'0 0.0
2018-Jun-15 15:30N 37°57' E 023°37'0 0.0
2018-Jun-15 14:59N 37°57' E 023°37'1 2.3
2018-Jun-15 14:31N 37°57' E 023°35'0 0.8
2018-Jun-15 14:01N 37°57' E 023°36'1 1.3
2018-Jun-15 13:31N 37°57' E 023°35'0 0.0
2018-Jun-15 13:00N 37°57' E 023°35'0 0.6
2018-Jun-15 12:30N 37°57' E 023°35'0 0.1
2018-Jun-15 11:46N 37°57' E 023°35'0 1.4
2018-Jun-15 11:30N 37°57' E 023°35'2 3.9
2018-Jun-15 11:00N 37°56' E 023°37'0 0.0
2018-Jun-15 06:00N 37°56' E 023°37'2 4.1
2018-Jun-15 05:30N 37°57' E 023°35'0 0.7
2018-Jun-15 05:00N 37°57' E 023°35'2 3.8
2018-Jun-15 04:30N 37°56' E 023°37'0 0.0
2018-Jun-15 04:00N 37°56' E 023°37'0 0.0
2018-Jun-15 03:30N 37°56' E 023°37'0 0.0
2018-Jun-15 03:00N 37°56' E 023°37'0 0.0
2018-Jun-15 02:30N 37°56' E 023°37'0 0.0
2018-Jun-15 02:00N 37°56' E 023°37'0 0.0
2018-Jun-15 01:30N 37°56' E 023°37'0 0.1
2018-Jun-15 01:00N 37°56' E 023°37'0 0.5
2018-Jun-15 00:30N 37°56' E 023°37'1 2.7
2018-Jun-15 00:01N 37°57' E 023°36'1 1.9
2018-Jun-14 23:30N 37°56' E 023°36'1 2.5
2018-Jun-14 23:00N 37°57' E 023°36'0 0.2
2018-Jun-14 22:31N 37°57' E 023°36'0 0.0
2018-Jun-14 22:01N 37°57' E 023°36'0 0.2
2018-Jun-14 21:30N 37°57' E 023°36'0 0.8
2018-Jun-14 21:00N 37°57' E 023°36'0 0.9
2018-Jun-14 20:30N 37°57' E 023°36'1 1.1
2018-Jun-14 20:00N 37°57' E 023°37'0 0.0
2018-Jun-14 19:30N 37°57' E 023°37'0 0.0
2018-Jun-14 19:01N 37°57' E 023°37'0 0.0
2018-Jun-14 18:30N 37°57' E 023°37'0 0.0
2018-Jun-14 18:00N 37°57' E 023°37'0 0.0
2018-Jun-14 17:31N 37°57' E 023°37'0 0.0
2018-Jun-14 17:00N 37°57' E 023°37'0 0.0
2018-Jun-14 16:31N 37°57' E 023°37'0 0.0
2018-Jun-14 16:00N 37°57' E 023°37'0 0.0
2018-Jun-14 15:31N 37°57' E 023°37'2 3.4
2018-Jun-14 15:00N 37°56' E 023°38'0 0.0
2018-Jun-14 14:30N 37°56' E 023°38'1 1.6
2018-Jun-14 14:00N 37°56' E 023°37'0 0.0
2018-Jun-14 13:30N 37°56' E 023°37'0 0.0
2018-Jun-14 13:00N 37°56' E 023°37'0 0.0
2018-Jun-14 12:31N 37°56' E 023°37'0 0.0
2018-Jun-14 12:00N 37°56' E 023°37'0 0.0
2018-Jun-14 11:30N 37°56' E 023°37'0 0.0
2018-Jun-14 11:00N 37°56' E 023°37'0 0.0
2018-Jun-14 10:30N 37°56' E 023°37'0 0.0
2018-Jun-14 04:55N 37°56' E 023°37'2 3.9
2018-Jun-14 04:30N 37°57' E 023°36'2 2.8
2018-Jun-14 03:54N 37°56' E 023°37'0 0.9
2018-Jun-14 03:30N 37°56' E 023°37'0 0.9
2018-Jun-14 02:59N 37°56' E 023°36'1 0.6
2018-Jun-14 02:04N 37°57' E 023°36'0 0.5
2018-Jun-14 01:56N 37°57' E 023°36'1 1.9
2018-Jun-14 01:30N 37°57' E 023°35'0 0.4
2018-Jun-14 01:00N 37°57' E 023°35'1 0.2
2018-Jun-13 21:10N 37°57' E 023°36'0 1.5
2018-Jun-13 20:55N 37°57' E 023°35'2 4.1
2018-Jun-13 20:30N 37°56' E 023°35'2 3.5
2018-Jun-13 19:59N 37°57' E 023°35'1 0.2
2018-Jun-13 16:33N 37°57' E 023°36'1 4.5
2018-Jun-13 16:27N 37°57' E 023°36'0 0.5
2018-Jun-13 15:30N 37°57' E 023°36'1 1.8
2018-Jun-13 15:00N 37°57' E 023°35'1 2.8
2018-Jun-13 14:30N 37°57' E 023°37'0 0.8
2018-Jun-13 14:00N 37°57' E 023°36'1 2.2
2018-Jun-13 13:30N 37°57' E 023°35'2 5.0
2018-Jun-13 13:00N 37°56' E 023°38'2 4.1
2018-Jun-13 12:30N 37°57' E 023°36'1 2.8
2018-Jun-13 12:00N 37°56' E 023°37'0 0.5
2018-Jun-13 11:31N 37°56' E 023°37'0 0.0
2018-Jun-13 11:00N 37°56' E 023°37'0 0.0
2018-Jun-13 05:15N 37°56' E 023°37'0 0.0
2018-Jun-13 05:01N 37°56' E 023°37'0 0.0
2018-Jun-13 04:30N 37°56' E 023°37'1 1.4
2018-Jun-13 04:01N 37°56' E 023°38'0 0.2
2018-Jun-13 03:30N 37°56' E 023°38'1 1.5
2018-Jun-13 03:00N 37°56' E 023°37'0 0.0
2018-Jun-13 02:31N 37°56' E 023°37'0 0.0
2018-Jun-13 02:01N 37°56' E 023°37'0 0.0
2018-Jun-13 01:30N 37°56' E 023°37'0 0.0
2018-Jun-13 01:01N 37°56' E 023°37'0 0.0
2018-Jun-13 00:31N 37°56' E 023°37'0 0.0
2018-Jun-13 00:00N 37°56' E 023°37'0 0.0
2018-Jun-12 23:30N 37°56' E 023°37'0 0.0
2018-Jun-12 23:00N 37°56' E 023°37'0 0.0
2018-Jun-12 22:31N 37°56' E 023°37'0 0.0
2018-Jun-12 22:01N 37°56' E 023°37'2 4.0
2018-Jun-12 21:30N 37°57' E 023°35'2 4.1
2018-Jun-12 21:01N 37°55' E 023°35'0 0.3
2018-Jun-12 20:30N 37°55' E 023°35'2 4.7
2018-Jun-12 20:01N 37°57' E 023°36'1 2.6
2018-Jun-12 19:31N 37°57' E 023°35'1 2.2
2018-Jun-12 19:01N 37°57' E 023°36'0 0.7
2018-Jun-12 18:31N 37°57' E 023°36'0 0.4
2018-Jun-12 18:00N 37°57' E 023°37'0 0.6
2018-Jun-12 17:30N 37°57' E 023°36'1 2.7
2018-Jun-12 17:01N 37°56' E 023°37'0 0.0
2018-Jun-12 16:31N 37°56' E 023°37'0 0.0
2018-Jun-12 16:01N 37°56' E 023°37'0 0.0
2018-Jun-12 15:31N 37°56' E 023°37'0 0.9
2018-Jun-12 15:00N 37°56' E 023°38'0 0.9
2018-Jun-12 14:31N 37°56' E 023°37'0 0.0
2018-Jun-12 14:00N 37°56' E 023°37'0 0.0
2018-Jun-12 13:30N 37°56' E 023°37'0 0.0
2018-Jun-12 13:01N 37°56' E 023°37'0 0.0
2018-Jun-12 12:30N 37°56' E 023°37'0 0.0
2018-Jun-12 12:01N 37°56' E 023°37'2 3.5
2018-Jun-12 11:30N 37°57' E 023°36'2 3.2
2018-Jun-12 11:01N 37°56' E 023°37'0 0.4
2018-Jun-12 10:31N 37°56' E 023°37'  

Dump ship's entire track history